Decoded Metar for PAFS (NIKOLAI in AK, USA) (IATA:NIB) | Meteo·Mobile Aviation Weather
aviador You're here:

PAFS Decoded Metar

NIKOLAI in AK, USA
Report Time2018-10-19 08:01:00
UTC Time2018-10-19 08:37:37
Flight Rules vfr VFR
Wind060° at 08 kt
W.Decomp.*RWY 04: 8.0 kt HW 0.1 kt RCW
W.Rank060° ranks 3
Current wind is above 060° avg. (7.0)
Visibility9999 m
Phenomena:N/A
Clouds:N/A
Expected CloudBase > 400 ft AGL from Temp-Dew spread
CeilingNone
Temp02°C (ISA -12)
Dew Point01°C (93% RH)
AAT-2.7°C
QNH1006 hPa
Density Alt-738 ft
Elevation413 ft
Report Wrong Elevation
Raw Report
PAFS 190801Z AUTO 06008KT 10SM CLR 02/01 A2972=

Extra information for PAFS:More info

Metar Taf Metar & Taf Last 4 Metars F.Rules Stats Wind Profile Meteogram Temp Stats Airport Information Weather charts Add Link Nearby VenuesMetar ALERT Operation Metar Decoded Social comments

AIRNAV info for PAFS